CheckWX is a tool to help pilots better visualize weather data.  It is not intended as a substitute for an official pre-flight weather briefing.

08:55:02 UTC

KSLG METAR
Smith Field Airport
Siloam Springs, Arkansas, USA
Current

59 mins ago

KSLG 120756Z AUTO 16011KT 10SM CLR 04/M04 A3032 RMK AO2 SLP270 T00441044 TSNO
Observed
Dec-12 @ 07:56 UTC
Wind
  • 160° at 11 KTS
Visibility
10 SM
Flight Rules
VFR
Cloud Levels
  • Clear skies
Temperature
C / 39°F
Dewpoint
-4°C / 25°F
Humidity
56%
Altimeter
30.32" Hg
Pressure
1026.72 hPa
Previous

2 hours ago

KSLG 120656Z AUTO 17010KT 10SM CLR 04/M04 A3033 RMK AO2 SLP275 T00441044 TSNO
Observed
Dec-12 @ 06:56 UTC
Wind
  • 170° at 10 KTS
Visibility
10 SM
Flight Rules
VFR
Cloud Levels
  • Clear skies
Temperature
C / 39°F
Dewpoint
-4°C / 25°F
Humidity
56%
Altimeter
30.33" Hg
Pressure
1027.12 hPa
Previous

3 hours ago

KSLG 120556Z AUTO 16005KT 10SM CLR 03/M04 A3036 RMK AO2 SLP285 T00331039 10061 20028 401111056 57003 TSNO
Observed
Dec-12 @ 05:56 UTC
Wind
  • 160° at 5 KTS
Visibility
10 SM
Flight Rules
VFR
Cloud Levels
  • Clear skies
Temperature
C / 37°F
Dewpoint
-4°C / 25°F
Humidity
60%
Altimeter
30.36" Hg
Pressure
1028.12 hPa